createdAt,value
2022-07-31T00:00:27.841Z,2.83
2022-07-31T00:03:15.733Z,3.05
2022-07-31T00:06:03.811Z,3.33
2022-07-31T00:08:51.715Z,3.15
2022-07-31T00:11:41.505Z,3.88
2022-07-31T00:14:29.376Z,3.20
2022-07-31T00:17:17.143Z,3.35
2022-07-31T00:20:05.831Z,2.78
2022-07-31T00:22:54.750Z,2.90
2022-07-31T00:25:42.547Z,3.42
2022-07-31T00:28:30.536Z,3.30
2022-07-31T00:31:18.538Z,4.47
2022-07-31T00:34:06.324Z,3.30
2022-07-31T00:36:54.212Z,3.47
2022-07-31T00:39:42.027Z,3.20
2022-07-31T00:42:29.800Z,3.60
2022-07-31T00:45:17.610Z,3.75
2022-07-31T00:48:10.153Z,3.38
2022-07-31T00:50:58.108Z,3.30
2022-07-31T00:53:45.874Z,3.35
2022-07-31T00:56:33.864Z,3.28
2022-07-31T00:59:24.462Z,3.38
2022-07-31T01:02:12.873Z,2.97
2022-07-31T01:05:00.669Z,2.95
2022-07-31T01:07:49.443Z,3.22
2022-07-31T01:10:59.386Z,3.30
2022-07-31T01:13:54.383Z,3.22
2022-07-31T01:16:47.307Z,3.00
2022-07-31T01:19:43.438Z,2.97
2022-07-31T01:23:07.013Z,3.38
2022-07-31T01:26:28.333Z,2.88
2022-07-31T01:29:30.124Z,3.08
2022-07-31T01:32:27.773Z,3.30
2022-07-31T01:35:22.296Z,2.92
2022-07-31T01:38:26.561Z,2.90
2022-07-31T01:41:18.171Z,3.65
2022-07-31T01:44:07.200Z,2.85
2022-07-31T01:47:02.195Z,3.40
2022-07-31T01:49:51.725Z,3.33
2022-07-31T01:52:40.602Z,3.45
2022-07-31T01:55:30.633Z,3.08
2022-07-31T01:58:41.563Z,3.92
2022-07-31T02:01:30.272Z,3.83
2022-07-31T02:04:20.503Z,3.50
2022-07-31T02:07:09.840Z,4.03
2022-07-31T02:09:59.259Z,3.45
2022-07-31T02:12:48.539Z,3.50
2022-07-31T02:15:37.616Z,3.35
2022-07-31T02:18:26.626Z,3.13
2022-07-31T02:21:15.134Z,3.70
2022-07-31T02:24:03.209Z,3.35
2022-07-31T02:26:52.886Z,3.47
2022-07-31T02:29:42.588Z,3.53
2022-07-31T02:32:33.372Z,3.75
2022-07-31T02:35:21.747Z,3.35
2022-07-31T02:38:22.288Z,3.38
2022-07-31T02:41:12.538Z,3.67
2022-07-31T02:44:00.832Z,4.22
2022-07-31T02:46:49.004Z,3.60
2022-07-31T02:49:37.892Z,3.63
2022-07-31T02:52:26.405Z,3.85
2022-07-31T02:55:14.415Z,24.23
2022-07-31T02:58:03.687Z,28.20
2022-07-31T03:01:06.173Z,26.10
2022-07-31T03:03:54.136Z,12.63
2022-07-31T03:06:41.959Z,6.13
2022-07-31T03:09:30.640Z,4.28
2022-07-31T03:12:18.486Z,4.20
2022-07-31T03:15:11.438Z,3.78
2022-07-31T03:17:59.882Z,3.88
2022-07-31T03:20:51.742Z,3.97
2022-07-31T03:23:39.831Z,4.22
2022-07-31T03:26:28.487Z,4.35
2022-07-31T03:29:42.530Z,4.05
2022-07-31T03:32:24.041Z,3.80
2022-07-31T03:35:11.971Z,4.00
2022-07-31T03:38:00.186Z,4.40
2022-07-31T03:40:48.276Z,4.30
2022-07-31T03:43:47.227Z,3.90
2022-07-31T03:46:36.156Z,4.82
2022-07-31T03:49:24.743Z,4.07
2022-07-31T03:52:13.060Z,3.97
2022-07-31T03:55:01.617Z,4.22
2022-07-31T03:57:49.939Z,4.30
2022-07-31T04:00:38.200Z,4.68
2022-07-31T04:03:31.157Z,3.90
2022-07-31T04:06:18.977Z,4.13
2022-07-31T04:09:13.252Z,4.20
2022-07-31T04:12:07.227Z,4.13
2022-07-31T04:14:55.289Z,4.85
2022-07-31T04:17:43.753Z,3.78
2022-07-31T04:20:31.624Z,3.95
2022-07-31T04:23:19.411Z,4.60
2022-07-31T04:26:10.009Z,3.58
2022-07-31T04:29:07.766Z,3.67
2022-07-31T04:31:56.289Z,3.90
2022-07-31T04:34:44.087Z,3.97
2022-07-31T04:37:33.429Z,4.05
2022-07-31T04:40:21.801Z,3.92
2022-07-31T04:43:09.593Z,3.63
2022-07-31T04:45:57.905Z,3.80
2022-07-31T04:48:45.848Z,3.97
2022-07-31T04:51:37.076Z,4.13
2022-07-31T04:54:25.428Z,4.75
2022-07-31T04:57:13.264Z,7.88
2022-07-31T05:00:01.458Z,5.22
2022-07-31T05:02:49.609Z,5.93
2022-07-31T05:05:37.365Z,7.90
2022-07-31T05:08:25.150Z,6.25
2022-07-31T05:11:25.107Z,3.63
2022-07-31T05:14:14.391Z,3.78
2022-07-31T05:17:02.246Z,3.95
2022-07-31T05:19:50.050Z,4.28
2022-07-31T05:22:37.849Z,3.85
2022-07-31T05:25:25.613Z,3.72
2022-07-31T05:28:13.501Z,3.80
2022-07-31T05:31:01.276Z,4.38
2022-07-31T05:33:50.969Z,4.30
2022-07-31T05:36:38.962Z,3.40
2022-07-31T05:39:28.137Z,4.25
2022-07-31T05:42:15.924Z,3.95
2022-07-31T05:45:04.404Z,4.30
2022-07-31T05:47:52.219Z,3.88
2022-07-31T05:50:43.295Z,4.78
2022-07-31T05:53:31.118Z,4.20
2022-07-31T05:56:18.945Z,4.00
2022-07-31T05:59:06.987Z,4.20
2022-07-31T06:01:54.882Z,4.60
2022-07-31T06:04:42.709Z,4.50
2022-07-31T06:07:30.504Z,4.22
2022-07-31T06:10:18.844Z,3.92
2022-07-31T06:13:06.682Z,4.28
2022-07-31T06:15:56.063Z,4.07
2022-07-31T06:18:44.164Z,4.45
2022-07-31T06:21:32.041Z,4.05
2022-07-31T06:24:19.828Z,4.47
2022-07-31T06:27:09.292Z,4.50
2022-07-31T06:30:07.703Z,4.50
2022-07-31T06:32:55.605Z,3.50
2022-07-31T06:35:43.434Z,4.60
2022-07-31T06:38:31.311Z,4.40
2022-07-31T06:41:37.546Z,4.13
2022-07-31T06:44:25.299Z,4.10
2022-07-31T06:47:15.735Z,3.63
2022-07-31T06:50:05.843Z,4.07
2022-07-31T06:52:53.621Z,4.40
2022-07-31T06:55:44.629Z,3.90
2022-07-31T06:58:33.136Z,4.28
2022-07-31T07:01:21.141Z,4.30
2022-07-31T07:04:09.298Z,4.53
2022-07-31T07:06:57.100Z,4.20
2022-07-31T07:09:45.133Z,4.25
2022-07-31T07:12:33.003Z,3.42
2022-07-31T07:15:28.733Z,4.32
2022-07-31T07:18:16.693Z,4.43
2022-07-31T07:21:04.805Z,4.38
2022-07-31T07:23:54.895Z,4.97
2022-07-31T07:26:42.729Z,4.57
2022-07-31T07:29:30.803Z,4.57
2022-07-31T07:32:18.629Z,4.15
2022-07-31T07:35:09.166Z,4.20
2022-07-31T07:37:57.525Z,4.45
2022-07-31T07:40:45.541Z,4.32
2022-07-31T07:43:33.373Z,4.32
2022-07-31T07:46:25.844Z,4.32
2022-07-31T07:49:13.974Z,4.40
2022-07-31T07:52:02.064Z,4.22
2022-07-31T07:54:49.944Z,4.78
2022-07-31T07:57:37.765Z,4.63
2022-07-31T08:00:26.151Z,4.85
2022-07-31T08:03:48.854Z,4.90
2022-07-31T08:06:23.255Z,5.00
2022-07-31T08:09:11.088Z,5.47
2022-07-31T08:11:59.388Z,5.57
2022-07-31T08:14:47.448Z,5.10
2022-07-31T08:17:35.286Z,4.70
2022-07-31T08:20:23.169Z,5.28
2022-07-31T08:23:11.042Z,4.57
2022-07-31T08:26:08.369Z,4.75
2022-07-31T08:28:56.315Z,4.78
2022-07-31T08:31:49.330Z,4.95
2022-07-31T08:34:41.975Z,5.25
2022-07-31T08:37:51.033Z,4.53
2022-07-31T08:40:43.210Z,4.35
2022-07-31T08:44:02.404Z,4.23
2022-07-31T08:46:40.519Z,4.55
2022-07-31T08:49:31.730Z,4.28
2022-07-31T08:52:25.451Z,3.88
2022-07-31T08:55:54.943Z,4.05
2022-07-31T08:58:23.830Z,3.65
2022-07-31T09:01:13.938Z,4.18
2022-07-31T09:04:07.453Z,4.30
2022-07-31T09:06:58.215Z,4.30
2022-07-31T09:09:51.600Z,3.95
2022-07-31T09:12:42.701Z,3.35
2022-07-31T09:15:35.104Z,3.38
2022-07-31T09:18:24.724Z,3.80
2022-07-31T09:21:12.842Z,3.30
2022-07-31T09:24:03.164Z,3.72
2022-07-31T09:27:08.194Z,3.35
2022-07-31T09:29:58.526Z,3.08
2022-07-31T09:32:46.379Z,3.17
2022-07-31T09:35:39.863Z,3.33
2022-07-31T09:38:36.743Z,3.08
2022-07-31T09:41:57.874Z,3.25
2022-07-31T09:44:40.408Z,2.70
2022-07-31T09:47:34.343Z,2.60
2022-07-31T09:50:24.648Z,2.85
2022-07-31T09:53:12.513Z,3.03
2022-07-31T09:56:00.310Z,2.55
2022-07-31T09:58:51.874Z,2.75
2022-07-31T10:01:44.580Z,2.75
2022-07-31T10:04:39.296Z,2.42
2022-07-31T10:07:35.714Z,2.53
2022-07-31T10:10:24.249Z,2.40
2022-07-31T10:13:20.982Z,2.20
2022-07-31T10:16:09.394Z,2.75
2022-07-31T10:19:01.178Z,2.35
2022-07-31T10:21:57.829Z,2.70
2022-07-31T10:24:48.619Z,2.30
2022-07-31T10:27:40.608Z,2.50
2022-07-31T10:30:30.764Z,2.60
2022-07-31T10:33:42.318Z,2.13
2022-07-31T10:36:37.563Z,2.13
2022-07-31T10:39:44.427Z,2.78
2022-07-31T10:43:09.939Z,2.83
2022-07-31T10:45:58.422Z,2.90
2022-07-31T10:48:55.755Z,5.95
2022-07-31T10:51:50.864Z,12.15
2022-07-31T10:54:50.436Z,7.72
2022-07-31T10:57:56.697Z,2.58
2022-07-31T11:00:47.523Z,2.90
2022-07-31T11:03:54.296Z,2.30
2022-07-31T11:06:44.682Z,2.28
2022-07-31T11:09:34.574Z,2.53
2022-07-31T11:12:41.807Z,2.60
2022-07-31T11:15:32.580Z,2.10
2022-07-31T11:18:28.891Z,2.60
2022-07-31T11:21:40.668Z,2.33
2022-07-31T11:24:28.458Z,2.47
2022-07-31T11:27:16.245Z,2.55
2022-07-31T11:30:12.543Z,2.10
2022-07-31T11:33:01.180Z,2.20
2022-07-31T11:35:51.294Z,2.45
2022-07-31T11:38:46.871Z,2.22
2022-07-31T11:41:42.006Z,2.45
2022-07-31T11:44:36.925Z,2.30
2022-07-31T11:48:09.734Z,2.78
2022-07-31T11:50:44.473Z,2.35
2022-07-31T11:53:42.879Z,2.55
2022-07-31T11:56:30.936Z,2.42
2022-07-31T11:59:45.122Z,2.58
2022-07-31T12:02:34.528Z,1.92
2022-07-31T12:05:39.042Z,2.97
2022-07-31T12:08:28.099Z,2.33
2022-07-31T12:11:20.904Z,2.50
2022-07-31T12:14:08.792Z,2.35
2022-07-31T12:16:59.871Z,3.03
2022-07-31T12:19:47.969Z,2.55
2022-07-31T12:22:36.287Z,2.45
2022-07-31T12:25:24.207Z,2.10
2022-07-31T12:28:17.173Z,2.30
2022-07-31T12:31:05.028Z,2.67
2022-07-31T12:33:53.014Z,2.72
2022-07-31T12:36:43.370Z,2.60
2022-07-31T12:39:54.350Z,2.55
2022-07-31T12:42:45.590Z,2.47
2022-07-31T12:45:38.712Z,2.10
2022-07-31T12:48:27.671Z,2.50
2022-07-31T12:51:17.691Z,2.33
2022-07-31T12:54:06.525Z,2.40
2022-07-31T12:56:54.729Z,1.95
2022-07-31T12:59:44.818Z,2.08
2022-07-31T13:02:35.679Z,2.30
2022-07-31T13:05:24.529Z,2.03
2022-07-31T13:08:14.888Z,2.10
2022-07-31T13:11:05.140Z,1.85
2022-07-31T13:13:53.091Z,2.28
2022-07-31T13:16:40.949Z,2.03
2022-07-31T13:19:31.782Z,2.10
2022-07-31T13:22:22.272Z,2.05
2022-07-31T13:25:12.974Z,2.25
2022-07-31T13:28:03.989Z,1.75
2022-07-31T13:30:55.341Z,1.67
2022-07-31T13:33:45.856Z,1.80
2022-07-31T13:36:38.730Z,2.58
2022-07-31T13:39:29.196Z,2.40
2022-07-31T13:42:19.960Z,2.33
2022-07-31T13:45:09.578Z,2.35
2022-07-31T13:48:05.544Z,2.20
2022-07-31T13:50:59.409Z,2.20
2022-07-31T13:53:50.410Z,2.35
2022-07-31T13:56:43.250Z,2.33
2022-07-31T13:59:33.679Z,2.10
2022-07-31T14:02:27.406Z,1.85
2022-07-31T14:08:33.401Z,2.00
2022-07-31T14:11:20.340Z,2.05
2022-07-31T14:14:08.342Z,2.08
2022-07-31T14:16:58.648Z,1.95
2022-07-31T14:19:46.572Z,1.58
2022-07-31T14:22:36.933Z,1.80
2022-07-31T14:25:24.899Z,1.95
2022-07-31T14:28:15.726Z,1.90
2022-07-31T14:31:06.238Z,1.70
2022-07-31T14:33:56.665Z,1.75
2022-07-31T14:36:44.493Z,1.65
2022-07-31T14:39:35.065Z,2.38
2022-07-31T14:42:27.870Z,2.00
2022-07-31T14:45:18.191Z,2.42
2022-07-31T14:48:08.746Z,2.00
2022-07-31T14:50:59.029Z,1.67
2022-07-31T14:53:52.334Z,1.52
2022-07-31T14:57:00.766Z,1.85
2022-07-31T14:59:51.362Z,2.22
2022-07-31T15:02:43.867Z,1.70
2022-07-31T15:06:40.866Z,1.50
2022-07-31T15:08:41.680Z,1.73
2022-07-31T15:11:57.408Z,2.05
2022-07-31T15:14:42.641Z,1.90
2022-07-31T15:17:30.527Z,1.80
2022-07-31T15:20:18.473Z,2.03
2022-07-31T15:23:06.289Z,1.80
2022-07-31T15:25:54.144Z,2.00
2022-07-31T15:28:42.454Z,1.92
2022-07-31T15:31:32.760Z,2.03
2022-07-31T15:34:23.188Z,2.03
2022-07-31T15:37:19.846Z,1.95
2022-07-31T15:40:15.219Z,1.85
2022-07-31T15:43:03.193Z,1.83
2022-07-31T15:45:51.258Z,1.80
2022-07-31T15:48:39.176Z,1.40
2022-07-31T15:51:27.049Z,1.80
2022-07-31T15:54:15.254Z,2.17
2022-07-31T15:57:03.435Z,1.83
2022-07-31T15:59:54.466Z,1.75
2022-07-31T16:02:45.422Z,2.10
2022-07-31T16:05:38.952Z,2.25
2022-07-31T16:08:34.865Z,1.83
2022-07-31T16:11:23.697Z,1.65
2022-07-31T16:14:34.418Z,2.00
2022-07-31T16:17:25.204Z,2.08
2022-07-31T16:20:26.306Z,1.85
2022-07-31T16:23:19.676Z,1.85
2022-07-31T16:26:10.046Z,1.58
2022-07-31T16:28:57.884Z,1.58
2022-07-31T16:31:45.741Z,1.90
2022-07-31T16:34:33.554Z,1.70
2022-07-31T16:37:21.434Z,1.38
2022-07-31T16:40:31.911Z,1.52
2022-07-31T16:43:49.523Z,1.70
2022-07-31T16:46:28.264Z,1.63
2022-07-31T16:49:35.587Z,1.90
2022-07-31T16:52:27.902Z,1.60
2022-07-31T16:55:15.916Z,2.08
2022-07-31T16:58:03.881Z,1.52
2022-07-31T17:00:51.851Z,1.52
2022-07-31T17:04:00.964Z,1.65
2022-07-31T17:06:49.667Z,2.30
2022-07-31T17:09:37.643Z,1.92
2022-07-31T17:12:25.534Z,2.00
2022-07-31T17:15:13.302Z,1.80
2022-07-31T17:18:01.179Z,1.70
2022-07-31T17:20:49.010Z,2.60
2022-07-31T17:23:44.091Z,1.48
2022-07-31T17:26:32.560Z,1.73
2022-07-31T17:29:20.415Z,1.45
2022-07-31T17:32:08.329Z,1.55
2022-07-31T17:34:59.326Z,1.60
2022-07-31T17:37:50.349Z,1.90
2022-07-31T17:40:43.863Z,1.95
2022-07-31T17:47:07.284Z,1.90
2022-07-31T17:49:48.746Z,1.55
2022-07-31T17:52:37.850Z,1.80
2022-07-31T17:55:27.922Z,1.77
2022-07-31T17:58:17.879Z,2.10
2022-07-31T18:01:07.346Z,1.75
2022-07-31T18:03:55.134Z,5.60
2022-07-31T18:06:45.503Z,2.03
2022-07-31T18:09:33.578Z,8.80
2022-07-31T18:12:21.395Z,8.32
2022-07-31T18:15:11.869Z,4.97
2022-07-31T18:17:59.701Z,2.60
2022-07-31T18:20:47.575Z,2.60
2022-07-31T18:23:35.574Z,2.40
2022-07-31T18:26:26.588Z,2.25
2022-07-31T18:29:16.736Z,1.80
2022-07-31T18:32:05.821Z,2.47
2022-07-31T18:34:53.831Z,2.50
2022-07-31T18:37:41.649Z,1.98
2022-07-31T18:40:29.530Z,2.53
2022-07-31T18:43:17.452Z,2.10
2022-07-31T18:46:05.276Z,2.10
2022-07-31T18:48:55.862Z,2.33
2022-07-31T18:51:44.217Z,2.10
2022-07-31T18:54:32.046Z,2.28
2022-07-31T18:57:22.505Z,1.98
2022-07-31T19:00:11.067Z,2.30
2022-07-31T19:03:01.033Z,1.90
2022-07-31T19:05:50.767Z,2.03
2022-07-31T19:08:38.606Z,2.40
2022-07-31T19:11:28.698Z,1.90
2022-07-31T19:14:16.776Z,1.95
2022-07-31T19:17:09.736Z,2.10
2022-07-31T19:20:02.271Z,1.90
2022-07-31T19:22:50.736Z,1.67
2022-07-31T19:25:55.746Z,1.98
2022-07-31T19:28:51.407Z,2.00
2022-07-31T19:31:39.663Z,1.50
2022-07-31T19:34:27.488Z,2.10
2022-07-31T19:37:16.942Z,1.75
2022-07-31T19:40:08.637Z,1.85
2022-07-31T19:42:57.973Z,1.80
2022-07-31T19:46:10.712Z,1.80
2022-07-31T19:48:53.559Z,1.75
2022-07-31T19:51:41.545Z,1.77
2022-07-31T19:54:29.340Z,1.90
2022-07-31T19:57:18.142Z,2.00
2022-07-31T20:00:07.828Z,2.05
2022-07-31T20:02:56.009Z,1.95
2022-07-31T20:05:49.358Z,1.88
2022-07-31T20:08:37.468Z,2.00
2022-07-31T20:11:27.759Z,2.13
2022-07-31T20:14:19.211Z,2.10
2022-07-31T20:17:07.337Z,1.92
2022-07-31T20:20:03.003Z,2.22
2022-07-31T20:23:03.761Z,2.22
2022-07-31T20:25:51.748Z,2.13
2022-07-31T20:28:40.411Z,2.30
2022-07-31T20:31:28.398Z,2.40
2022-07-31T20:34:16.399Z,2.47
2022-07-31T20:37:04.510Z,2.05
2022-07-31T20:39:52.334Z,2.05
2022-07-31T20:42:40.224Z,2.28
2022-07-31T20:45:28.769Z,2.30
2022-07-31T20:48:20.965Z,2.60
2022-07-31T20:51:13.090Z,2.50
2022-07-31T20:54:01.352Z,2.35
2022-07-31T20:56:49.377Z,2.47
2022-07-31T20:59:37.189Z,2.22
2022-07-31T21:02:26.364Z,2.30
2022-07-31T21:05:14.175Z,1.98
2022-07-31T21:08:15.949Z,2.47
2022-07-31T21:11:03.819Z,2.30
2022-07-31T21:13:51.625Z,2.15
2022-07-31T21:16:41.325Z,2.55
2022-07-31T21:19:29.198Z,1.80
2022-07-31T21:22:16.987Z,2.25
2022-07-31T21:25:05.491Z,2.00
2022-07-31T21:27:54.053Z,2.60
2022-07-31T21:30:42.334Z,2.25
2022-07-31T21:33:30.736Z,2.30
2022-07-31T21:36:20.884Z,1.92
2022-07-31T21:39:08.977Z,2.08
2022-07-31T21:42:07.385Z,1.90
2022-07-31T21:44:55.796Z,2.00
2022-07-31T21:47:53.005Z,2.55
2022-07-31T21:50:46.278Z,2.20
2022-07-31T21:53:34.245Z,2.22
2022-07-31T21:56:22.159Z,2.70
2022-07-31T21:59:10.167Z,2.67
2022-07-31T22:02:02.241Z,2.22
2022-07-31T22:05:08.551Z,2.20
2022-07-31T22:07:56.373Z,2.40
2022-07-31T22:10:44.376Z,2.25
2022-07-31T22:13:32.199Z,2.13
2022-07-31T22:16:19.948Z,2.17
2022-07-31T22:19:09.071Z,1.90
2022-07-31T22:21:57.158Z,1.80
2022-07-31T22:24:45.323Z,2.05
2022-07-31T22:27:52.289Z,2.35
2022-07-31T22:30:40.206Z,2.10
2022-07-31T22:33:28.099Z,1.80
2022-07-31T22:36:15.973Z,1.83
2022-07-31T22:39:03.825Z,1.90
2022-07-31T22:41:51.712Z,1.92
2022-07-31T22:44:39.543Z,1.83
2022-07-31T22:47:27.660Z,2.00
2022-07-31T22:50:15.574Z,2.17
2022-07-31T22:53:03.399Z,2.03
2022-07-31T22:55:53.118Z,2.03
2022-07-31T22:58:40.882Z,1.80
2022-07-31T23:01:28.676Z,1.52
2022-07-31T23:04:16.433Z,1.50
2022-07-31T23:07:04.720Z,1.65
2022-07-31T23:09:54.547Z,1.90
2022-07-31T23:12:42.486Z,2.25
2022-07-31T23:15:30.471Z,1.40
2022-07-31T23:18:18.462Z,1.70
2022-07-31T23:21:08.393Z,1.67
2022-07-31T23:23:57.888Z,1.48
2022-07-31T23:26:45.841Z,2.10
2022-07-31T23:29:35.592Z,1.75
2022-07-31T23:32:29.634Z,1.95
2022-07-31T23:35:17.550Z,1.52
2022-07-31T23:38:05.461Z,1.85
2022-07-31T23:40:56.376Z,1.95
2022-07-31T23:43:55.561Z,2.35
2022-07-31T23:46:45.676Z,2.17
2022-07-31T23:49:37.522Z,1.70
2022-07-31T23:52:25.387Z,1.67
2022-07-31T23:55:13.411Z,1.80
2022-07-31T23:58:01.194Z,1.38
